createdAt,value
2022-09-14T00:01:25.645Z,3.60
2022-09-14T00:04:28.715Z,3.80
2022-09-14T00:07:30.863Z,4.95
2022-09-14T00:10:33.209Z,3.22
2022-09-14T00:13:36.510Z,3.47
2022-09-14T00:16:41.777Z,3.72
2022-09-14T00:19:44.006Z,4.38
2022-09-14T00:22:46.101Z,4.22
2022-09-14T00:25:48.322Z,4.18
2022-09-14T00:28:56.389Z,3.33
2022-09-14T00:31:58.898Z,3.70
2022-09-14T00:35:01.158Z,3.30
2022-09-14T00:38:03.317Z,3.97
2022-09-14T00:41:07.393Z,4.88
2022-09-14T00:44:12.782Z,3.78
2022-09-14T00:47:17.015Z,3.35
2022-09-14T00:50:20.162Z,4.38
2022-09-14T00:53:22.947Z,4.32
2022-09-14T00:56:25.885Z,3.92
2022-09-14T00:59:31.069Z,3.78
2022-09-14T01:02:34.035Z,3.45
2022-09-14T01:06:08.088Z,3.95
2022-09-14T01:09:25.628Z,4.40
2022-09-14T01:12:58.788Z,6.28
2022-09-14T01:16:15.768Z,3.83
2022-09-14T01:19:47.062Z,4.97
2022-09-14T01:23:22.566Z,4.50
2022-09-14T01:26:47.413Z,4.82
2022-09-14T01:29:52.567Z,4.22
2022-09-14T01:33:19.449Z,4.95
2022-09-14T01:36:23.283Z,4.20
2022-09-14T01:39:29.483Z,5.93
2022-09-14T01:42:33.504Z,4.55
2022-09-14T01:45:38.464Z,3.83
2022-09-14T01:49:11.600Z,4.53
2022-09-14T01:52:21.852Z,4.47
2022-09-14T01:55:46.131Z,4.05
2022-09-14T01:59:01.756Z,3.83
2022-09-14T02:02:17.118Z,4.90
2022-09-14T02:05:39.466Z,4.22
2022-09-14T02:08:41.735Z,4.85
2022-09-14T02:11:44.650Z,4.65
2022-09-14T02:14:47.507Z,5.07
2022-09-14T02:17:50.056Z,5.63
2022-09-14T02:21:00.986Z,5.25
2022-09-14T02:24:03.544Z,5.05
2022-09-14T02:27:07.504Z,4.90
2022-09-14T02:30:10.310Z,5.45
2022-09-14T02:33:40.733Z,4.60
2022-09-14T02:37:16.761Z,4.70
2022-09-14T02:40:36.557Z,4.75
2022-09-14T02:43:53.689Z,6.40
2022-09-14T02:47:04.500Z,5.40
2022-09-14T02:50:37.220Z,4.32
2022-09-14T02:53:59.844Z,5.63
2022-09-14T02:57:03.593Z,5.13
2022-09-14T03:00:06.229Z,4.47
2022-09-14T03:03:10.413Z,4.78
2022-09-14T03:06:12.678Z,4.80
2022-09-14T03:09:14.849Z,5.75
2022-09-14T03:12:17.085Z,5.07
2022-09-14T03:15:19.335Z,5.40
2022-09-14T03:18:21.590Z,6.18
2022-09-14T03:21:23.951Z,5.72
2022-09-14T03:24:26.055Z,5.53
2022-09-14T03:27:28.373Z,5.40
2022-09-14T03:30:30.976Z,5.88
2022-09-14T03:33:33.352Z,5.10
2022-09-14T03:36:35.460Z,5.40
2022-09-14T03:39:37.943Z,5.22
2022-09-14T03:42:49.473Z,5.55
2022-09-14T03:45:51.623Z,6.60
2022-09-14T03:48:55.354Z,5.95
2022-09-14T03:51:59.775Z,5.30
2022-09-14T03:55:02.478Z,5.57
2022-09-14T03:58:04.688Z,5.30
2022-09-14T04:01:09.719Z,5.60
2022-09-14T04:04:11.966Z,5.65
2022-09-14T04:07:15.797Z,6.05
2022-09-14T04:10:17.991Z,6.10
2022-09-14T04:13:20.149Z,4.80
2022-09-14T04:16:22.592Z,5.72
2022-09-14T04:19:24.801Z,5.05
2022-09-14T04:22:26.958Z,5.82
2022-09-14T04:25:29.120Z,6.22
2022-09-14T04:28:31.247Z,5.30
2022-09-14T04:31:33.601Z,7.03
2022-09-14T04:34:35.985Z,5.80
2022-09-14T04:37:38.179Z,5.35
2022-09-14T04:40:43.600Z,6.45
2022-09-14T04:43:46.418Z,8.55
2022-09-14T04:46:48.643Z,5.40
2022-09-14T04:49:53.772Z,5.68
2022-09-14T04:52:55.960Z,10.80
2022-09-14T04:56:02.413Z,16.80
2022-09-14T04:59:05.858Z,12.65
2022-09-14T05:02:07.988Z,12.15
2022-09-14T05:05:10.357Z,17.42
2022-09-14T05:08:12.526Z,11.50
2022-09-14T05:11:17.952Z,15.65
2022-09-14T05:14:20.175Z,15.38
2022-09-14T05:17:22.414Z,18.90
2022-09-14T05:20:24.625Z,17.27
2022-09-14T05:23:26.870Z,13.88
2022-09-14T05:26:31.120Z,16.45
2022-09-14T05:29:36.251Z,15.85
2022-09-14T05:32:38.370Z,20.35
2022-09-14T05:35:40.512Z,24.85
2022-09-14T05:38:43.193Z,22.30
2022-09-14T05:41:45.351Z,19.73
2022-09-14T05:44:47.657Z,21.95
2022-09-14T05:47:49.890Z,17.63
2022-09-14T05:51:07.421Z,16.92
2022-09-14T05:54:11.709Z,15.90
2022-09-14T05:57:13.863Z,13.50
2022-09-14T06:00:16.819Z,18.02
2022-09-14T06:03:19.171Z,13.98
2022-09-14T06:06:22.578Z,16.20
2022-09-14T06:09:24.748Z,13.82
2022-09-14T06:12:27.497Z,14.75
2022-09-14T06:15:29.603Z,13.43
2022-09-14T06:18:34.208Z,12.25
2022-09-14T06:21:36.472Z,12.65
2022-09-14T06:24:38.595Z,14.05
2022-09-14T06:27:40.683Z,10.23
2022-09-14T06:30:44.365Z,10.90
2022-09-14T06:33:47.607Z,10.45
2022-09-14T06:36:49.732Z,12.23
2022-09-14T06:39:51.890Z,12.35
2022-09-14T06:42:54.220Z,10.88
2022-09-14T06:45:57.401Z,11.13
2022-09-14T06:49:08.075Z,9.93
2022-09-14T06:52:10.204Z,10.60
2022-09-14T06:55:12.334Z,11.30
2022-09-14T06:58:14.757Z,10.80
2022-09-14T07:01:19.989Z,9.80
2022-09-14T07:04:22.268Z,8.90
2022-09-14T07:07:24.467Z,8.60
2022-09-14T07:10:28.299Z,10.60
2022-09-14T07:13:31.204Z,11.77
2022-09-14T07:16:35.229Z,10.93
2022-09-14T07:19:37.453Z,8.00
2022-09-14T07:22:39.653Z,10.18
2022-09-14T07:25:42.491Z,8.38
2022-09-14T07:28:46.151Z,8.50
2022-09-14T07:31:51.083Z,10.20
2022-09-14T07:34:53.224Z,7.40
2022-09-14T07:37:55.425Z,7.65
2022-09-14T07:41:00.906Z,9.70
2022-09-14T07:44:06.240Z,7.03
2022-09-14T07:47:08.465Z,6.90
2022-09-14T07:50:10.664Z,9.30
2022-09-14T07:53:13.262Z,7.03
2022-09-14T07:56:17.053Z,5.55
2022-09-14T07:59:36.439Z,7.95
2022-09-14T08:02:39.253Z,4.97
2022-09-14T08:05:41.380Z,7.63
2022-09-14T08:08:48.135Z,5.78
2022-09-14T08:11:50.184Z,6.15
2022-09-14T08:14:53.741Z,6.03
2022-09-14T08:17:55.783Z,7.18
2022-09-14T08:21:02.766Z,5.88
2022-09-14T08:24:05.373Z,4.93
2022-09-14T08:27:07.560Z,5.00
2022-09-14T08:30:10.375Z,5.05
2022-09-14T08:33:12.643Z,7.07
2022-09-14T08:36:18.269Z,5.75
2022-09-14T08:39:20.481Z,6.78
2022-09-14T08:42:25.209Z,8.10
2022-09-14T08:45:29.056Z,5.70
2022-09-14T08:48:35.705Z,6.13
2022-09-14T08:51:37.913Z,6.07
2022-09-14T08:54:41.085Z,6.28
2022-09-14T08:57:56.574Z,6.13
2022-09-14T09:01:16.407Z,6.00
2022-09-14T09:07:48.975Z,7.13
2022-09-14T09:10:54.385Z,7.72
2022-09-14T09:13:57.872Z,7.60
2022-09-14T09:17:04.738Z,6.10
2022-09-14T09:20:07.446Z,6.90
2022-09-14T09:23:19.743Z,5.85
2022-09-14T09:26:32.911Z,7.70
2022-09-14T09:29:35.184Z,6.70
2022-09-14T09:32:46.251Z,8.35
2022-09-14T09:36:16.076Z,9.25
2022-09-14T09:39:19.703Z,6.80
2022-09-14T09:42:25.136Z,8.25
2022-09-14T09:45:46.445Z,6.22
2022-09-14T09:48:49.405Z,7.80
2022-09-14T09:51:53.474Z,6.10
2022-09-14T09:54:57.479Z,8.63
2022-09-14T09:58:28.542Z,8.90
2022-09-14T10:01:33.450Z,10.27
2022-09-14T10:04:35.773Z,6.20
2022-09-14T10:08:09.338Z,7.65
2022-09-14T10:11:36.651Z,9.45
2022-09-14T10:14:40.588Z,7.78
2022-09-14T10:17:56.146Z,6.72
2022-09-14T10:21:08.253Z,6.93
2022-09-14T10:24:20.565Z,6.57
2022-09-14T10:27:54.615Z,5.85
2022-09-14T10:31:12.309Z,7.18
2022-09-14T10:34:20.900Z,6.28
2022-09-14T10:37:51.359Z,6.88
2022-09-14T10:41:37.935Z,7.13
2022-09-14T10:45:04.394Z,5.35
2022-09-14T10:48:30.981Z,6.18
2022-09-14T10:52:14.217Z,4.65
2022-09-14T10:55:42.237Z,4.78
2022-09-14T10:59:02.859Z,5.28
2022-09-14T11:03:00.146Z,4.32
2022-09-14T11:06:18.186Z,5.22
2022-09-14T11:09:44.732Z,13.13
2022-09-14T11:13:12.966Z,4.65
2022-09-14T11:16:29.905Z,4.18
2022-09-14T11:20:18.847Z,4.28
2022-09-14T11:23:44.301Z,4.82
2022-09-14T11:27:08.373Z,5.18
2022-09-14T11:30:16.697Z,3.70
2022-09-14T11:33:31.023Z,5.13
2022-09-14T11:36:41.574Z,4.32
2022-09-14T11:39:55.383Z,5.03
2022-09-14T11:42:57.585Z,4.75
2022-09-14T11:46:17.823Z,4.85
2022-09-14T11:50:02.897Z,4.25
2022-09-14T11:53:16.202Z,3.13
2022-09-14T11:56:31.283Z,4.13
2022-09-14T11:59:42.455Z,3.20
2022-09-14T12:03:01.888Z,5.65
2022-09-14T12:06:38.404Z,5.55
2022-09-14T12:09:41.537Z,4.50
2022-09-14T12:12:53.759Z,5.20
2022-09-14T12:16:05.167Z,5.40
2022-09-14T12:19:17.872Z,3.63
2022-09-14T12:22:36.645Z,4.78
2022-09-14T12:25:40.322Z,3.80
2022-09-14T12:28:50.452Z,4.72
2022-09-14T12:31:52.657Z,3.45
2022-09-14T12:35:32.229Z,4.60
2022-09-14T12:38:37.970Z,5.80
2022-09-14T12:41:40.252Z,4.63
2022-09-14T12:44:43.590Z,5.20
2022-09-14T12:47:52.625Z,5.97
2022-09-14T12:50:55.118Z,5.17
2022-09-14T12:54:05.996Z,5.00
2022-09-14T12:57:24.559Z,4.35
2022-09-14T13:00:29.965Z,3.83
2022-09-14T13:03:48.849Z,4.00
2022-09-14T13:06:52.781Z,4.22
2022-09-14T13:09:57.152Z,3.97
2022-09-14T13:13:02.264Z,5.47
2022-09-14T13:16:07.325Z,4.63
2022-09-14T13:19:25.945Z,4.78
2022-09-14T13:22:31.835Z,5.07
2022-09-14T13:25:37.168Z,3.50
2022-09-14T13:28:45.087Z,5.13
2022-09-14T13:31:47.676Z,5.18
2022-09-14T13:34:50.202Z,4.85
2022-09-14T13:37:53.889Z,4.82
2022-09-14T13:41:04.138Z,5.28
2022-09-14T13:44:06.475Z,5.57
2022-09-14T13:47:11.516Z,4.40
2022-09-14T13:50:14.765Z,4.75
2022-09-14T13:53:43.142Z,5.20
2022-09-14T13:56:45.419Z,4.00
2022-09-14T14:03:52.595Z,4.07
2022-09-14T14:10:49.058Z,4.93
2022-09-14T14:13:51.407Z,6.22
2022-09-14T14:17:22.834Z,8.75
2022-09-14T14:20:31.283Z,5.72
2022-09-14T14:23:33.705Z,4.35
2022-09-14T14:26:35.944Z,6.47
2022-09-14T14:29:38.179Z,5.18
2022-09-14T14:32:40.331Z,4.40
2022-09-14T14:46:26.719Z,6.30
2022-09-14T14:49:29.162Z,6.20
2022-09-14T14:56:15.379Z,4.30
2022-09-14T14:59:20.603Z,9.77
2022-09-14T15:02:22.977Z,5.43
2022-09-14T15:05:26.112Z,5.60
2022-09-14T15:08:28.263Z,9.50
2022-09-14T15:11:31.903Z,6.72
2022-09-14T15:14:34.065Z,4.72
2022-09-14T15:17:36.218Z,5.90
2022-09-14T15:20:38.792Z,7.22
2022-09-14T15:23:41.160Z,10.25
2022-09-14T15:26:43.644Z,10.00
2022-09-14T15:29:45.827Z,9.30
2022-09-14T15:32:47.948Z,4.85
2022-09-14T15:35:56.083Z,6.75
2022-09-14T15:38:58.418Z,5.90
2022-09-14T15:42:00.750Z,5.60
2022-09-14T15:45:03.920Z,3.88
2022-09-14T15:48:06.515Z,8.13
2022-09-14T15:51:11.945Z,5.28
2022-09-14T15:54:14.362Z,8.30
2022-09-14T15:57:16.569Z,4.93
2022-09-14T16:00:19.681Z,10.25
2022-09-14T16:03:21.800Z,8.07
2022-09-14T16:06:24.690Z,7.50
2022-09-14T16:09:26.867Z,7.93
2022-09-14T16:12:29.082Z,5.03
2022-09-14T16:15:31.298Z,8.93
2022-09-14T16:18:33.967Z,6.15
2022-09-14T16:21:36.771Z,4.22
2022-09-14T16:24:39.344Z,10.23
2022-09-14T16:27:42.232Z,5.57
2022-09-14T16:30:45.200Z,4.97
2022-09-14T16:33:49.615Z,5.20
2022-09-14T16:36:52.384Z,3.95
2022-09-14T16:39:54.729Z,3.90
2022-09-14T16:42:56.900Z,7.38
2022-09-14T16:46:10.932Z,4.65
2022-09-14T16:49:13.137Z,4.95
2022-09-14T16:52:15.424Z,6.85
2022-09-14T16:55:17.646Z,7.00
2022-09-14T16:58:20.279Z,4.40
2022-09-14T17:01:28.813Z,6.38
2022-09-14T17:04:31.156Z,5.43
2022-09-14T17:07:33.279Z,4.38
2022-09-14T17:10:35.705Z,5.22
2022-09-14T17:13:38.016Z,5.82
2022-09-14T17:16:40.653Z,5.50
2022-09-14T17:19:43.819Z,5.13
2022-09-14T17:22:46.122Z,5.47
2022-09-14T17:25:48.408Z,4.57
2022-09-14T17:28:52.227Z,4.60
2022-09-14T17:31:55.634Z,4.53
2022-09-14T17:34:57.898Z,4.63
2022-09-14T17:38:00.045Z,5.68
2022-09-14T17:41:07.597Z,5.47
2022-09-14T17:44:12.285Z,3.75
2022-09-14T17:47:14.463Z,5.43
2022-09-14T17:50:16.885Z,4.88
2022-09-14T17:53:20.913Z,5.40
2022-09-14T17:56:25.935Z,4.63
2022-09-14T17:59:28.257Z,4.07
2022-09-14T18:02:30.478Z,5.28
2022-09-14T18:05:33.102Z,7.18
2022-09-14T18:08:36.059Z,4.03
2022-09-14T18:11:38.550Z,3.75
2022-09-14T18:14:40.765Z,4.15
2022-09-14T18:17:44.860Z,3.83
2022-09-14T18:20:47.012Z,5.03
2022-09-14T18:23:50.622Z,5.40
2022-09-14T18:26:53.387Z,4.28
2022-09-14T18:29:55.977Z,4.30
2022-09-14T18:32:58.130Z,4.60
2022-09-14T18:36:00.352Z,4.45
2022-09-14T18:39:02.486Z,4.10
2022-09-14T18:42:04.944Z,4.20
2022-09-14T18:45:07.674Z,4.80
2022-09-14T18:48:09.919Z,5.13
2022-09-14T18:51:14.069Z,3.55
2022-09-14T18:54:16.644Z,4.32
2022-09-14T18:57:20.036Z,3.63
2022-09-14T19:00:22.197Z,3.70
2022-09-14T19:03:24.279Z,4.43
2022-09-14T19:06:26.463Z,3.63
2022-09-14T19:09:28.537Z,4.10
2022-09-14T19:12:30.891Z,3.75
2022-09-14T19:15:34.173Z,3.53
2022-09-14T19:18:36.613Z,4.78
2022-09-14T19:21:39.002Z,4.90
2022-09-14T19:24:41.980Z,4.45
2022-09-14T19:27:44.219Z,3.45
2022-09-14T19:30:49.145Z,3.75
2022-09-14T19:33:52.733Z,3.58
2022-09-14T19:36:56.811Z,4.65
2022-09-14T19:47:29.418Z,4.63
2022-09-14T19:50:31.749Z,3.85
2022-09-14T19:53:35.694Z,3.78
2022-09-14T19:56:38.678Z,6.05
2022-09-14T19:59:41.174Z,4.78
2022-09-14T20:02:46.060Z,3.78
2022-09-14T20:17:06.559Z,4.30
2022-09-14T20:20:10.576Z,5.45
2022-09-14T20:23:12.785Z,4.38
2022-09-14T20:26:15.814Z,5.65
2022-09-14T20:29:19.484Z,4.65
2022-09-14T20:32:21.611Z,4.05
2022-09-14T20:35:23.854Z,3.90
2022-09-14T20:38:26.190Z,6.75
2022-09-14T20:41:30.832Z,5.72
2022-09-14T20:44:33.270Z,4.75
2022-09-14T20:47:35.502Z,5.43
2022-09-14T20:50:37.761Z,4.68
2022-09-14T20:53:41.578Z,4.32
2022-09-14T21:00:28.949Z,4.72
2022-09-14T21:03:31.590Z,4.07
2022-09-14T21:06:36.848Z,5.60
2022-09-14T21:09:39.290Z,4.57
2022-09-14T21:12:41.713Z,4.85
2022-09-14T21:15:44.632Z,5.35
2022-09-14T21:18:51.770Z,4.80
2022-09-14T21:21:54.509Z,5.00
2022-09-14T21:24:56.673Z,5.28
2022-09-14T21:27:59.291Z,3.75
2022-09-14T21:31:15.339Z,5.88
2022-09-14T21:34:17.828Z,5.28
2022-09-14T21:37:20.069Z,4.35
2022-09-14T21:40:22.274Z,4.45
2022-09-14T21:43:30.724Z,4.20
2022-09-14T21:46:46.428Z,6.80
2022-09-14T21:49:48.712Z,5.20
2022-09-14T21:56:25.817Z,4.75
2022-09-14T21:59:28.065Z,5.90
2022-09-14T22:02:30.344Z,6.18
2022-09-14T22:09:08.608Z,5.97
2022-09-14T22:12:10.844Z,5.82
2022-09-14T22:18:53.675Z,4.63
2022-09-14T22:21:56.759Z,4.15
2022-09-14T22:24:58.855Z,5.68
2022-09-14T22:28:01.073Z,5.28
2022-09-14T22:31:03.420Z,4.97
2022-09-14T22:34:06.066Z,4.70
2022-09-14T22:37:08.550Z,5.93
2022-09-14T22:40:10.954Z,4.55
2022-09-14T22:43:13.085Z,5.97
2022-09-14T22:46:17.078Z,6.38
2022-09-14T22:49:19.300Z,5.78
2022-09-14T22:52:21.611Z,6.28
2022-09-14T22:55:23.737Z,4.88
2022-09-14T22:58:27.533Z,4.95
2022-09-14T23:01:32.842Z,4.45
2022-09-14T23:04:35.038Z,5.38
2022-09-14T23:07:37.260Z,4.65
2022-09-14T23:10:39.779Z,6.30
2022-09-14T23:13:42.660Z,5.30
2022-09-14T23:16:45.700Z,5.95
2022-09-14T23:19:47.960Z,5.32
2022-09-14T23:22:50.026Z,5.15
2022-09-14T23:25:52.180Z,4.18
2022-09-14T23:29:03.629Z,4.50
2022-09-14T23:32:05.921Z,4.72
2022-09-14T23:35:08.466Z,7.03
2022-09-14T23:38:10.583Z,5.05
2022-09-14T23:41:12.627Z,5.95
2022-09-14T23:44:14.728Z,5.03
2022-09-14T23:47:18.281Z,4.72
2022-09-14T23:50:20.460Z,4.97
2022-09-14T23:53:22.627Z,4.90
2022-09-14T23:56:24.907Z,5.15
2022-09-14T23:59:27.017Z,4.40
